Sylvania, Pennsylvania
Current Conditions -  °F | °C
As of 3:53 PM on Thursday 20 Nov 2014 (Local Time) from KELM Reporting Station
Broken Clouds Broken Clouds  
Wind Chill: 19°   Ceiling: 6000
Heat Index: 31°   Visibility: 10mi
Dew Point:   Wind: 17mph
Humidity: 40%   Direction: 260°W
Pressure: 29.85"   Gusts: 24mph
Location:  41.81°N, 76.86°W
Report Text: KELM 202053Z 26015G21KT 10SM BKN060 M01/M13 A2985 RMK AO2 SLP118 T10061128 53011
Loading
Personal Weather Stations






























Interactive Weather Map New forecast layout! Learn more

10-Day Weather Forecast

Advertisements
Track Severe Weather on mobile